Aérodrome :







RETROUVEZ-NOUS SUR...

 
LOGIN :

S'inscrire | Disclaimer

   EN    FR    IT 

 









Légende :    VFR   VFR Marginal   IFR   IFR Intensif   IFR Très Intensif
Visi : 
Plafond : 
>= 8 km
>= 3000ft
5 à 8 km
1000 à 3000 ft
1500m à 5 km
500 à 1000 ft
800 à 1500m
200 à 500 ft
< 800m
< 200 ft
Symboles :   Orages  Brouillard  Fortes neiges  Fortes précipitations  Vent > 20 kt






- Altitude de l'aérodrome : 167 ft
- Code IATA : YAW


CYAW - CFB Shearwater

DERNIER METAR :
  • 281400Z 33013G20KT 15SM OVC012 M03/M05 A2955 RMK SC8 DA-1577FT VIRGA SE OVR OCN SLP008

METARs EXPIRÉS :
  • 281300Z 32015KT 15SM BKN014 BKN085 M03/M04 A2953 RMK SC6AC1 DA-1475FT SLP003
  • 281238Z 33014KT 15SM BKN015 OVC080 M03/M04 A2953 RMK SC6AC2 DA-1475FT SLP001
  • 281200Z 33012KT 15SM -SHSN OVC015 M02/M04 A2951 RMK SC8 DA-1385FT PCPN VRY LGT SLP996

TAF TAF CYAW
Valide du 28 à 12h jusqu'au 29 à 00h UTC


281130Z 2812/2824 33010KT P6SM SCT012 OVC020
TEMPO 2812/2813 5SM -SHSN BKN012 OVC020
FM281300 33010G20KT P6SM SCT015 BKN025
TEMPO 2813/2818 6SM -SHSN BKN015
FM281800 32012G22KT P6SM BKN025
TEMPO 2818/2824 32015G25KT P6SM -SHSN BKN020 RMK NXT FCST BY 281800Z



MET'MAP, la Météo Aéronautique d'un coup d'oeil ! - Copyright ORBIFLY Décembre 2007 - Disclaimer

ORBIFLY MET'MAP TEAM :

Programmation & Développement : Alexandra Zaïnal
Sur une idée originale de : Baudouin d'Aumeries
Assistance à la programmation : Marc-Olivier Méhu
Soutien technique & logistique : Manuel Goepfert

Contact : metmap@orbifly.com




SOURCES & CREDITS :

   NOAA